Time;durP1;ratioP1;P1;durP2;ratioP2;P2;SDS_P1;SDS_P2;PMS_P1;PMS_P2;Temp;Humidity;BMP_temperature;BMP_pressure;BME280_temperature;BME280_humidity;BME280_pressure;Samples;Min_cycle;Max_cycle;Signal;HPM_P1;HPM_P2
2023/10/29 00:00:17;;;;;;;;;;;22.80;54.80;;;;;;5118311;28;19952;-50
2023/10/29 00:02:44;;;;;;;;;;;22.80;54.80;;;;;;5118264;28;19923;-51
2023/10/29 00:05:11;;;;;;;;;;;22.80;54.80;;;;;;5118218;28;19972;-52
2023/10/29 00:07:39;;;;;;;;;;;22.80;55.40;;;;;;5117568;28;20367;-48
2023/10/29 00:10:06;;;;;;;;;;;22.80;54.80;;;;;;5118116;28;19965;-51
2023/10/29 00:12:33;;;;;;;;;;;22.80;54.80;;;;;;5117930;28;19924;-51
2023/10/29 00:15:01;;;;;;;;;;;22.80;54.80;;;;;;5107253;28;20281;-55
2023/10/29 00:17:28;;;;;;;;;;;22.80;54.80;;;;;;5096096;28;19978;-55
2023/10/29 00:19:55;;;;;;;;;;;22.70;54.80;;;;;;5097608;28;19938;-55
2023/10/29 00:22:22;;;;;;;;;;;22.70;54.80;;;;;;5097275;28;20358;-55
2023/10/29 00:24:49;;;;;;;;;;;22.80;54.80;;;;;;5097122;28;20329;-55
2023/10/29 00:27:16;;;;;;;;;;;22.80;54.80;;;;;;5097522;28;19981;-52
2023/10/29 00:29:43;;;;;;;;;;;22.70;54.80;;;;;;5096783;28;20354;-54
2023/10/29 00:32:10;;;;;;;;;;;22.70;54.90;;;;;;5097387;28;19935;-54
2023/10/29 00:34:37;;;;;;;;;;;22.70;54.90;;;;;;5097294;28;20027;-54
2023/10/29 00:37:04;;;;;;;;;;;22.70;54.90;;;;;;5096939;28;19997;-53
2023/10/29 00:39:31;;;;;;;;;;;22.70;54.90;;;;;;5097180;28;20352;-54
2023/10/29 00:41:59;;;;;;;;;;;22.70;55.00;;;;;;5096900;28;19978;-48
2023/10/29 00:44:25;;;;;;;;;;;22.70;55.00;;;;;;5096766;28;20015;-51
2023/10/29 00:46:53;;;;;;;;;;;22.70;55.00;;;;;;5097110;28;20327;-49
2023/10/29 00:49:20;;;;;;;;;;;22.70;55.00;;;;;;5096695;28;20436;-52
2023/10/29 00:51:48;;;;;;;;;;;22.70;55.00;;;;;;5096566;28;19928;-49
2023/10/29 00:54:15;;;;;;;;;;;22.70;55.00;;;;;;5096624;28;20011;-47
2023/10/29 00:56:42;;;;;;;;;;;22.70;55.00;;;;;;5096593;28;19924;-51
2023/10/29 00:59:11;;;;;;;;;;;22.70;55.00;;;;;;5096509;28;20345;-54
2023/10/29 01:01:38;;;;;;;;;;;22.70;55.00;;;;;;5096651;28;19924;-50
2023/10/29 01:04:05;;;;;;;;;;;22.70;55.00;;;;;;5096645;28;19963;-52
2023/10/29 01:06:35;;;;;;;;;;;22.70;55.00;;;;;;5096283;28;19924;-51
2023/10/29 01:09:02;;;;;;;;;;;22.80;54.90;;;;;;5096643;28;19977;-54
2023/10/29 01:11:29;;;;;;;;;;;22.70;54.80;;;;;;5096386;28;20272;-48
2023/10/29 01:13:56;;;;;;;;;;;22.70;54.70;;;;;;5095933;28;19924;-53
2023/10/29 01:16:23;;;;;;;;;;;22.70;54.80;;;;;;5096679;28;19924;-48
2023/10/29 01:18:50;;;;;;;;;;;22.70;54.70;;;;;;5095477;28;20437;-52
2023/10/29 01:21:17;;;;;;;;;;;22.70;54.70;;;;;;5116859;28;20330;-51
2023/10/29 01:23:44;;;;;;;;;;;22.70;54.70;;;;;;5116270;28;20011;-51
2023/10/29 01:26:11;;;;;;;;;;;22.70;54.70;;;;;;5116770;28;20014;-48
2023/10/29 01:28:38;;;;;;;;;;;22.70;54.70;;;;;;5116573;28;20342;-49
2023/10/29 01:31:06;;;;;;;;;;;22.70;54.70;;;;;;5116177;28;19936;-53
2023/10/29 01:33:33;;;;;;;;;;;22.70;54.70;;;;;;5116498;28;19928;-51
2023/10/29 01:36:00;;;;;;;;;;;22.70;54.70;;;;;;5116511;28;19978;-53
2023/10/29 01:38:27;;;;;;;;;;;22.70;54.70;;;;;;5116528;28;19931;-50
2023/10/29 01:40:54;;;;;;;;;;;22.70;54.70;;;;;;5115924;28;19924;-52
2023/10/29 01:43:21;;;;;;;;;;;22.70;54.70;;;;;;5116083;28;19924;-52
2023/10/29 01:45:48;;;;;;;;;;;22.70;54.70;;;;;;5115935;28;19955;-49
2023/10/29 01:48:16;;;;;;;;;;;22.70;54.70;;;;;;5115668;28;19934;-50
2023/10/29 01:50:43;;;;;;;;;;;22.70;54.70;;;;;;5116352;28;19923;-51
2023/10/29 01:53:10;;;;;;;;;;;22.70;54.80;;;;;;5116227;28;19927;-50
2023/10/29 01:55:37;;;;;;;;;;;22.70;54.80;;;;;;5115693;28;20374;-48
2023/10/29 01:58:04;;;;;;;;;;;22.70;54.80;;;;;;5115770;28;19924;-48
2023/10/29 02:00:31;;;;;;;;;;;22.70;54.80;;;;;;5115799;28;19923;-51
2023/10/29 02:02:59;;;;;;;;;;;22.70;54.80;;;;;;5115829;28;19924;-49
2023/10/29 02:05:26;;;;;;;;;;;22.70;54.90;;;;;;5114332;28;20451;-51
2023/10/29 02:07:53;;;;;;;;;;;22.70;54.90;;;;;;5114548;28;20318;-48
2023/10/29 02:10:20;;;;;;;;;;;22.70;55.00;;;;;;5115909;28;20373;-49
2023/10/29 02:12:47;;;;;;;;;;;22.70;54.90;;;;;;5115778;28;19924;-48
2023/10/29 02:15:14;;;;;;;;;;;22.70;55.00;;;;;;5115585;28;19953;-50
2023/10/29 02:17:41;;;;;;;;;;;22.70;55.00;;;;;;5115063;28;20372;-49
2023/10/29 02:20:09;;;;;;;;;;;22.70;55.00;;;;;;5114928;28;19924;-50
2023/10/29 02:22:36;;;;;;;;;;;22.70;55.00;;;;;;5115057;28;19949;-51
2023/10/29 02:25:03;;;;;;;;;;;22.70;55.00;;;;;;5115444;28;19923;-55
2023/10/29 02:27:30;;;;;;;;;;;22.60;54.90;;;;;;5115445;28;19924;-54
2023/10/29 02:29:57;;;;;;;;;;;22.70;55.00;;;;;;5115347;28;19923;-55
2023/10/29 02:32:24;;;;;;;;;;;22.70;54.90;;;;;;5115244;28;19931;-53
2023/10/29 02:34:51;;;;;;;;;;;22.70;54.80;;;;;;5115034;28;19930;-53
2023/10/29 02:37:18;;;;;;;;;;;22.70;54.70;;;;;;5115039;28;19968;-54
2023/10/29 02:39:45;;;;;;;;;;;22.70;54.70;;;;;;5115028;28;19924;-53
2023/10/29 02:42:16;;;;;;;;;;;22.70;54.70;;;;;;5114991;28;19923;-54
2023/10/29 02:44:44;;;;;;;;;;;22.70;54.70;;;;;;5115297;27;19928;-54
2023/10/29 02:47:11;;;;;;;;;;;22.70;54.70;;;;;;5114705;28;20303;-54
2023/10/29 02:49:38;;;;;;;;;;;22.70;54.70;;;;;;5114530;28;19924;-52
2023/10/29 02:52:05;;;;;;;;;;;22.70;54.70;;;;;;5115207;28;19924;-50
2023/10/29 02:54:33;;;;;;;;;;;22.70;54.70;;;;;;5114393;28;19928;-52
2023/10/29 02:57:00;;;;;;;;;;;22.70;54.70;;;;;;5114651;28;19924;-52
2023/10/29 02:59:29;;;;;;;;;;;22.70;54.70;;;;;;5114759;28;19924;-51
2023/10/29 03:01:56;;;;;;;;;;;22.70;54.70;;;;;;5114636;28;19928;-55
2023/10/29 03:04:23;;;;;;;;;;;22.70;54.70;;;;;;5114488;28;20368;-52
2023/10/29 03:06:50;;;;;;;;;;;22.70;54.70;;;;;;5114716;28;19927;-49
2023/10/29 03:09:18;;;;;;;;;;;22.70;54.70;;;;;;5114712;28;19924;-53
2023/10/29 03:11:44;;;;;;;;;;;22.70;54.70;;;;;;5114192;28;19963;-53
2023/10/29 03:14:11;;;;;;;;;;;22.70;54.70;;;;;;5114366;28;19928;-49
2023/10/29 03:16:38;;;;;;;;;;;22.60;54.70;;;;;;5114547;28;20380;-53
2023/10/29 03:19:05;;;;;;;;;;;22.60;54.70;;;;;;5114262;28;19967;-52
2023/10/29 03:21:32;;;;;;;;;;;22.70;54.70;;;;;;5114145;28;19971;-50
2023/10/29 03:23:59;;;;;;;;;;;22.60;54.70;;;;;;5114040;28;19924;-50
2023/10/29 03:26:27;;;;;;;;;;;22.70;54.70;;;;;;5129925;27;20291;-51
2023/10/29 03:28:54;;;;;;;;;;;22.60;54.70;;;;;;5114111;28;19923;-51
2023/10/29 03:31:21;;;;;;;;;;;22.60;55.30;;;;;;5129427;27;19984;-50
2023/10/29 03:33:48;;;;;;;;;;;22.60;54.70;;;;;;5114114;28;19928;-49
2023/10/29 03:36:15;;;;;;;;;;;22.60;54.80;;;;;;5114272;27;19984;-49
2023/10/29 03:38:42;;;;;;;;;;;22.60;54.80;;;;;;5114440;28;19984;-49
2023/10/29 03:41:20;;;;;;;;;;;22.60;54.80;;;;;;5114386;28;19939;-48
2023/10/29 03:43:47;;;;;;;;;;;22.60;54.90;;;;;;5113744;28;19934;-52
2023/10/29 03:46:15;;;;;;;;;;;22.60;54.90;;;;;;5113942;28;19969;-48
2023/10/29 03:48:44;;;;;;;;;;;22.60;54.90;;;;;;5114206;28;19994;-48
2023/10/29 03:51:12;;;;;;;;;;;22.60;54.90;;;;;;5113880;28;19967;-52
2023/10/29 03:53:40;;;;;;;;;;;22.60;54.90;;;;;;5112784;28;19931;-50
2023/10/29 03:56:08;;;;;;;;;;;22.60;54.90;;;;;;5114207;28;19931;-50
2023/10/29 03:58:35;;;;;;;;;;;22.60;54.80;;;;;;5112711;28;19976;-48
2023/10/29 04:01:02;;;;;;;;;;;22.70;54.70;;;;;;5113924;28;19923;-53
2023/10/29 04:03:29;;;;;;;;;;;22.60;54.60;;;;;;5114075;28;19927;-49
2023/10/29 04:05:56;;;;;;;;;;;22.60;54.80;;;;;;5113581;28;19934;-50
2023/10/29 04:08:23;;;;;;;;;;;22.60;54.60;;;;;;5113696;28;19923;-50
2023/10/29 04:10:50;;;;;;;;;;;22.60;54.60;;;;;;5114124;28;19924;-49
2023/10/29 04:13:17;;;;;;;;;;;22.60;54.60;;;;;;5112661;28;19927;-50
2023/10/29 04:15:44;;;;;;;;;;;22.60;54.60;;;;;;5113507;28;19939;-51
2023/10/29 04:18:11;;;;;;;;;;;22.60;54.60;;;;;;5113309;28;19930;-49
2023/10/29 04:20:38;;;;;;;;;;;22.60;54.60;;;;;;5114005;28;19928;-49
2023/10/29 04:23:05;;;;;;;;;;;22.60;54.60;;;;;;5113923;28;20006;-50
2023/10/29 04:25:33;;;;;;;;;;;22.60;54.60;;;;;;5113817;28;19976;-51
2023/10/29 04:28:00;;;;;;;;;;;22.60;54.60;;;;;;5112450;28;19969;-49
2023/10/29 04:30:27;;;;;;;;;;;22.60;54.60;;;;;;5113509;28;20342;-52
2023/10/29 04:32:54;;;;;;;;;;;22.60;54.60;;;;;;5113392;28;19930;-56
2023/10/29 04:35:21;;;;;;;;;;;22.60;54.60;;;;;;5113593;28;19924;-53
2023/10/29 04:37:48;;;;;;;;;;;22.60;54.60;;;;;;5113187;28;19935;-55
2023/10/29 04:40:15;;;;;;;;;;;22.60;54.50;;;;;;5113872;28;20335;-53
2023/10/29 04:42:42;;;;;;;;;;;22.60;54.30;;;;;;5115119;28;19931;-54
2023/10/29 04:45:11;;;;;;;;;;;22.60;54.20;;;;;;5117297;28;19959;-55
2023/10/29 04:47:38;;;;;;;;;;;22.70;54.00;;;;;;5117159;28;19924;-55
2023/10/29 04:50:05;;;;;;;;;;;22.70;53.90;;;;;;5117227;28;19946;-54
2023/10/29 04:52:32;;;;;;;;;;;22.70;53.70;;;;;;5117203;28;20273;-54
2023/10/29 04:55:05;;;;;;;;;;;22.70;53.50;;;;;;5098471;28;20410;-55
2023/10/29 04:57:32;;;;;;;;;;;22.70;53.40;;;;;;5096396;28;20296;-53
2023/10/29 04:59:59;;;;;;;;;;;22.70;53.40;;;;;;5108452;28;19985;-55
2023/10/29 05:02:26;;;;;;;;;;;22.70;53.40;;;;;;5117287;28;19924;-51
2023/10/29 05:04:53;;;;;;;;;;;22.70;53.30;;;;;;5117183;28;19923;-53
2023/10/29 05:07:20;;;;;;;;;;;22.70;53.20;;;;;;5116557;28;19977;-53
2023/10/29 05:09:47;;;;;;;;;;;22.70;53.10;;;;;;5116594;27;19927;-49
2023/10/29 05:12:15;;;;;;;;;;;22.70;53.10;;;;;;5117167;28;19993;-49
2023/10/29 05:14:42;;;;;;;;;;;22.70;53.10;;;;;;5116802;28;19924;-54
2023/10/29 05:17:08;;;;;;;;;;;22.70;53.00;;;;;;5116557;28;19924;-53
2023/10/29 05:19:35;;;;;;;;;;;22.60;52.80;;;;;;5116385;28;19927;-50
2023/10/29 05:22:03;;;;;;;;;;;22.60;52.70;;;;;;5116516;27;19931;-50
2023/10/29 05:24:30;;;;;;;;;;;22.70;52.80;;;;;;5116119;28;19927;-49
2023/10/29 05:26:57;;;;;;;;;;;22.60;52.70;;;;;;5116815;28;19940;-50
2023/10/29 05:29:27;;;;;;;;;;;22.60;52.60;;;;;;5100564;28;19963;-55
2023/10/29 05:31:54;;;;;;;;;;;22.60;52.50;;;;;;5095816;28;19935;-55
2023/10/29 05:34:21;;;;;;;;;;;22.60;52.40;;;;;;5096174;28;19970;-50
2023/10/29 05:36:48;;;;;;;;;;;22.60;52.30;;;;;;5095871;28;19968;-48
2023/10/29 05:39:15;;;;;;;;;;;22.60;52.30;;;;;;5095493;28;19928;-50
2023/10/29 05:41:42;;;;;;;;;;;22.60;52.20;;;;;;5095996;28;19977;-49
2023/10/29 05:44:09;;;;;;;;;;;22.60;52.20;;;;;;5095734;28;20386;-51
2023/10/29 05:46:36;;;;;;;;;;;22.60;52.10;;;;;;5095933;28;20397;-52
2023/10/29 05:49:03;;;;;;;;;;;22.60;52.00;;;;;;5095628;28;20446;-48
2023/10/29 05:51:30;;;;;;;;;;;22.60;51.90;;;;;;5095619;28;20383;-49
2023/10/29 05:53:57;;;;;;;;;;;22.70;51.90;;;;;;5094507;28;19928;-53
2023/10/29 05:56:24;;;;;;;;;;;22.70;51.70;;;;;;5095273;28;19930;-50
2023/10/29 05:58:51;;;;;;;;;;;22.70;51.70;;;;;;5095217;28;19977;-54
2023/10/29 06:01:18;;;;;;;;;;;22.70;51.60;;;;;;5095478;28;19928;-53
2023/10/29 06:03:45;;;;;;;;;;;22.70;51.50;;;;;;5095421;28;19924;-52
2023/10/29 06:06:12;;;;;;;;;;;22.70;51.40;;;;;;5095824;28;20295;-49
2023/10/29 06:08:39;;;;;;;;;;;22.70;51.40;;;;;;5106359;28;19963;-51
2023/10/29 06:11:06;;;;;;;;;;;22.80;51.30;;;;;;5116009;28;19923;-51
2023/10/29 06:13:33;;;;;;;;;;;22.70;51.10;;;;;;5115266;28;19949;-50
2023/10/29 06:16:00;;;;;;;;;;;22.80;51.00;;;;;;5115814;28;19969;-50
2023/10/29 06:18:27;;;;;;;;;;;22.80;51.10;;;;;;5115405;28;19977;-51
2023/10/29 06:20:54;;;;;;;;;;;22.80;51.00;;;;;;5115516;28;19977;-49
2023/10/29 06:23:21;;;;;;;;;;;22.80;51.00;;;;;;5115377;28;19924;-50
2023/10/29 06:25:48;;;;;;;;;;;22.80;50.90;;;;;;5115471;28;20022;-50
2023/10/29 06:28:15;;;;;;;;;;;22.80;50.90;;;;;;5115098;28;19924;-54
2023/10/29 06:30:44;;;;;;;;;;;22.90;50.80;;;;;;5115318;28;20222;-51
2023/10/29 06:33:11;;;;;;;;;;;22.90;50.80;;;;;;5115573;28;19928;-50
2023/10/29 06:35:40;;;;;;;;;;;22.90;50.70;;;;;;5115229;28;19960;-55
2023/10/29 06:38:07;;;;;;;;;;;22.90;50.60;;;;;;5115348;28;20382;-51
2023/10/29 06:40:34;;;;;;;;;;;23.00;50.50;;;;;;5115152;28;20416;-50
2023/10/29 06:43:01;;;;;;;;;;;23.00;50.40;;;;;;5115254;28;19969;-55
2023/10/29 06:45:28;;;;;;;;;;;23.00;50.40;;;;;;5115004;28;19924;-55
2023/10/29 06:47:55;;;;;;;;;;;23.00;50.20;;;;;;5114836;28;19928;-56
2023/10/29 06:50:22;;;;;;;;;;;23.10;50.20;;;;;;5115101;28;19930;-56
2023/10/29 06:52:49;;;;;;;;;;;23.10;50.00;;;;;;5114839;28;19924;-54
2023/10/29 06:55:16;;;;;;;;;;;23.10;49.90;;;;;;5115303;28;19928;-55
2023/10/29 06:57:43;;;;;;;;;;;23.10;49.80;;;;;;5114417;27;19923;-56
2023/10/29 07:00:11;;;;;;;;;;;23.20;49.70;;;;;;5114981;28;20014;-53
2023/10/29 07:02:38;;;;;;;;;;;23.20;49.70;;;;;;5114673;27;19928;-55
2023/10/29 07:05:06;;;;;;;;;;;23.30;49.60;;;;;;5114780;28;19969;-51
2023/10/29 07:07:34;;;;;;;;;;;23.30;49.60;;;;;;5113518;28;19931;-55
2023/10/29 07:10:03;;;;;;;;;;;23.30;49.50;;;;;;5114657;28;19923;-54
2023/10/29 07:12:31;;;;;;;;;;;23.30;49.40;;;;;;5114414;28;20366;-54
2023/10/29 07:14:58;;;;;;;;;;;23.30;49.40;;;;;;5114326;28;20380;-54
2023/10/29 07:17:25;;;;;;;;;;;23.30;49.30;;;;;;5114574;28;20454;-54
2023/10/29 07:19:52;;;;;;;;;;;23.30;49.20;;;;;;5114084;28;19946;-54
2023/10/29 07:22:19;;;;;;;;;;;23.30;49.20;;;;;;5114733;28;19969;-54
2023/10/29 07:24:46;;;;;;;;;;;23.40;49.20;;;;;;5114359;28;19923;-51
2023/10/29 07:27:14;;;;;;;;;;;23.40;49.10;;;;;;5112985;28;19930;-56
2023/10/29 07:29:42;;;;;;;;;;;23.40;49.00;;;;;;5114083;28;19924;-54
2023/10/29 07:32:09;;;;;;;;;;;23.40;49.00;;;;;;5114729;28;19958;-54
2023/10/29 07:34:36;;;;;;;;;;;23.50;49.00;;;;;;5114320;28;19963;-52
2023/10/29 07:37:03;;;;;;;;;;;23.50;49.00;;;;;;5114155;28;19924;-52
2023/10/29 07:39:30;;;;;;;;;;;23.50;48.90;;;;;;5130102;27;20001;-50
2023/10/29 07:41:57;;;;;;;;;;;23.50;48.90;;;;;;5130187;27;19977;-51
2023/10/29 07:44:24;;;;;;;;;;;23.60;49.00;;;;;;5112791;28;19924;-53
2023/10/29 07:46:51;;;;;;;;;;;23.60;49.00;;;;;;5113928;28;19924;-53
2023/10/29 07:49:18;;;;;;;;;;;23.60;48.90;;;;;;5114215;28;19974;-51
2023/10/29 07:51:47;;;;;;;;;;;23.60;48.90;;;;;;5113600;28;19924;-54
2023/10/29 07:54:16;;;;;;;;;;;23.60;48.90;;;;;;5114097;28;19924;-54
2023/10/29 07:56:43;;;;;;;;;;;23.60;48.90;;;;;;5113856;28;19927;-51
2023/10/29 07:59:10;;;;;;;;;;;23.60;48.90;;;;;;5114104;28;19932;-53
2023/10/29 08:01:37;;;;;;;;;;;23.60;48.80;;;;;;5113970;28;20008;-53
2023/10/29 08:04:04;;;;;;;;;;;23.60;48.80;;;;;;5114118;28;19924;-51
2023/10/29 08:06:32;;;;;;;;;;;23.60;48.80;;;;;;5113931;28;20363;-54
2023/10/29 08:08:59;;;;;;;;;;;23.70;48.80;;;;;;5113351;28;19923;-49
2023/10/29 08:11:26;;;;;;;;;;;23.70;48.70;;;;;;5113813;28;19970;-53
2023/10/29 08:13:53;;;;;;;;;;;23.70;48.70;;;;;;5129219;28;19973;-54
2023/10/29 08:16:20;;;;;;;;;;;23.70;48.60;;;;;;5112621;28;19924;-54
2023/10/29 08:18:47;;;;;;;;;;;23.80;48.60;;;;;;5117251;28;19923;-53
2023/10/29 08:21:15;;;;;;;;;;;23.80;48.60;;;;;;5118146;27;20002;-51
2023/10/29 08:23:42;;;;;;;;;;;23.80;48.50;;;;;;5117591;28;20040;-51
2023/10/29 08:26:09;;;;;;;;;;;23.90;48.50;;;;;;5117416;28;19924;-52
2023/10/29 08:28:36;;;;;;;;;;;23.90;48.40;;;;;;5116709;28;20355;-51
2023/10/29 08:31:04;;;;;;;;;;;23.90;48.40;;;;;;5117560;28;19924;-52
2023/10/29 08:33:31;;;;;;;;;;;23.90;48.30;;;;;;5117697;28;20010;-51
2023/10/29 08:35:58;;;;;;;;;;;23.90;48.20;;;;;;5117772;28;20022;-52
2023/10/29 08:38:25;;;;;;;;;;;24.00;48.30;;;;;;5117306;28;19938;-50
2023/10/29 08:40:52;;;;;;;;;;;24.00;48.20;;;;;;5117705;28;20332;-51
2023/10/29 08:43:19;;;;;;;;;;;24.00;48.10;;;;;;5117314;28;20375;-50
2023/10/29 08:45:46;;;;;;;;;;;24.10;48.10;;;;;;5117422;28;19931;-51
2023/10/29 08:48:13;;;;;;;;;;;24.10;48.10;;;;;;5116357;28;20302;-53
2023/10/29 08:50:40;;;;;;;;;;;24.10;48.00;;;;;;5117593;28;19930;-53
2023/10/29 08:53:07;;;;;;;;;;;24.10;48.00;;;;;;5117086;28;19930;-51
2023/10/29 08:55:35;;;;;;;;;;;24.10;47.90;;;;;;5117324;28;19924;-54
2023/10/29 08:58:03;;;;;;;;;;;24.20;48.00;;;;;;5116923;28;19931;-51
2023/10/29 09:00:32;;;;;;;;;;;24.20;47.90;;;;;;5117161;28;20268;-52
2023/10/29 09:03:14;;;;;;;;;;;24.20;47.80;;;;;;5117321;28;20290;-51
2023/10/29 09:05:42;;;;;;;;;;;24.20;47.80;;;;;;5116873;28;20013;-53
2023/10/29 09:08:10;;;;;;;;;;;24.30;47.70;;;;;;5116755;28;19928;-52
2023/10/29 09:10:42;;;;;;;;;;;24.30;47.70;;;;;;5117217;28;20003;-51
2023/10/29 09:13:09;;;;;;;;;;;24.30;47.70;;;;;;5116931;28;20290;-51
2023/10/29 09:15:37;;;;;;;;;;;24.30;47.60;;;;;;5116323;28;19923;-51
2023/10/29 09:18:04;;;;;;;;;;;24.40;47.70;;;;;;5116898;28;19924;-50
2023/10/29 09:20:32;;;;;;;;;;;24.40;47.60;;;;;;5116675;28;19924;-54
2023/10/29 09:22:59;;;;;;;;;;;24.40;47.60;;;;;;5116533;28;19923;-51
2023/10/29 09:25:26;;;;;;;;;;;24.40;47.60;;;;;;5116507;28;20396;-52
2023/10/29 09:27:53;;;;;;;;;;;24.40;47.50;;;;;;5116179;27;19931;-54
2023/10/29 09:30:20;;;;;;;;;;;24.50;47.60;;;;;;5115160;28;19977;-55
2023/10/29 09:32:47;;;;;;;;;;;24.40;47.50;;;;;;5116160;28;19924;-57
2023/10/29 09:35:14;;;;;;;;;;;24.50;47.60;;;;;;5116357;28;19924;-56
2023/10/29 09:37:42;;;;;;;;;;;24.50;47.60;;;;;;5116492;28;19924;-54
2023/10/29 09:40:13;;;;;;;;;;;24.50;47.60;;;;;;5115408;28;19927;-55
2023/10/29 09:42:43;;;;;;;;;;;24.50;47.70;;;;;;5116426;28;19967;-50
2023/10/29 09:45:11;;;;;;;;;;;24.50;47.70;;;;;;5116630;28;20010;-51
2023/10/29 09:47:38;;;;;;;;;;;24.50;47.70;;;;;;5115911;28;19930;-53
2023/10/29 09:50:06;;;;;;;;;;;24.50;47.70;;;;;;5114918;28;19969;-51
2023/10/29 09:52:33;;;;;;;;;;;24.50;47.70;;;;;;5116003;28;19969;-51
2023/10/29 09:55:01;;;;;;;;;;;24.50;47.70;;;;;;5116357;28;20320;-53
2023/10/29 09:57:29;;;;;;;;;;;24.50;47.80;;;;;;5131786;27;19924;-52
2023/10/29 09:59:58;;;;;;;;;;;24.50;47.80;;;;;;5115710;28;20022;-49
2023/10/29 10:02:26;;;;;;;;;;;24.50;47.80;;;;;;5102486;28;19963;-52
2023/10/29 10:04:54;;;;;;;;;;;24.50;47.80;;;;;;5094989;28;19977;-55
2023/10/29 10:07:21;;;;;;;;;;;24.50;47.80;;;;;;5095358;28;19954;-56
2023/10/29 10:09:52;;;;;;;;;;;24.50;47.80;;;;;;5095467;28;19924;-54
2023/10/29 10:12:20;;;;;;;;;;;24.50;47.80;;;;;;5095527;28;19935;-52
2023/10/29 10:14:48;;;;;;;;;;;24.60;47.80;;;;;;5095100;28;19931;-55
2023/10/29 10:17:15;;;;;;;;;;;24.50;47.70;;;;;;5095297;28;19930;-51
2023/10/29 10:19:42;;;;;;;;;;;24.60;47.80;;;;;;5094817;28;19924;-53
2023/10/29 10:22:09;;;;;;;;;;;24.60;47.80;;;;;;5095178;28;19997;-55
2023/10/29 10:24:38;;;;;;;;;;;24.50;47.80;;;;;;5094868;28;20436;-52
2023/10/29 10:27:06;;;;;;;;;;;24.60;47.80;;;;;;5095378;28;19928;-55
2023/10/29 10:29:33;;;;;;;;;;;24.60;47.90;;;;;;5094756;28;20386;-53
2023/10/29 10:32:04;;;;;;;;;;;24.60;47.70;;;;;;5095240;28;19928;-56
2023/10/29 10:34:34;;;;;;;;;;;24.60;47.70;;;;;;5095201;28;19924;-57
2023/10/29 10:37:02;;;;;;;;;;;24.60;47.70;;;;;;5094870;28;19928;-55
2023/10/29 10:39:31;;;;;;;;;;;24.60;47.70;;;;;;5094662;28;19928;-52
2023/10/29 10:42:03;;;;;;;;;;;24.60;47.60;;;;;;5094597;28;20408;-55
2023/10/29 10:44:30;;;;;;;;;;;24.60;47.60;;;;;;5094924;28;19969;-56
2023/10/29 10:46:59;;;;;;;;;;;24.70;47.70;;;;;;5095044;28;19928;-54
2023/10/29 10:49:31;;;;;;;;;;;24.70;47.60;;;;;;5094598;28;20026;-55
2023/10/29 10:52:01;;;;;;;;;;;24.70;47.60;;;;;;5094505;28;19943;-52
2023/10/29 10:54:29;;;;;;;;;;;24.70;47.50;;;;;;5094429;28;19924;-53
2023/10/29 10:56:56;;;;;;;;;;;24.70;47.40;;;;;;5094803;28;19970;-55
2023/10/29 10:59:23;;;;;;;;;;;24.70;47.30;;;;;;5094243;28;20296;-52
2023/10/29 11:01:50;;;;;;;;;;;24.70;47.30;;;;;;5093391;28;20295;-53
2023/10/29 11:04:18;;;;;;;;;;;24.70;47.30;;;;;;5094522;28;19932;-53
2023/10/29 11:06:46;;;;;;;;;;;24.70;47.30;;;;;;5094267;28;19924;-50
2023/10/29 11:09:14;;;;;;;;;;;24.80;47.30;;;;;;5092839;28;19958;-51
2023/10/29 11:11:46;;;;;;;;;;;24.80;47.20;;;;;;5093805;28;19924;-49
2023/10/29 11:14:14;;;;;;;;;;;24.80;47.10;;;;;;5093960;28;19924;-50
2023/10/29 11:16:47;;;;;;;;;;;24.80;47.10;;;;;;5093966;28;19967;-54
2023/10/29 11:19:35;;;;;;;;;;;24.80;47.10;;;;;;5093259;28;20124;-53
2023/10/29 11:22:22;;;;;;;;;;;24.80;47.00;;;;;;5093926;28;19927;-51
2023/10/29 11:25:10;;;;;;;;;;;24.80;47.00;;;;;;5093704;28;20456;-49
2023/10/29 11:27:39;;;;;;;;;;;24.90;46.90;;;;;;5093463;28;19969;-51
2023/10/29 11:30:13;;;;;;;;;;;24.80;46.80;;;;;;5092811;28;19924;-48
2023/10/29 11:32:41;;;;;;;;;;;24.80;46.70;;;;;;5093747;28;19924;-47
2023/10/29 11:35:17;;;;;;;;;;;24.90;46.70;;;;;;5093796;28;19924;-54
2023/10/29 11:37:44;;;;;;;;;;;24.90;46.70;;;;;;5093779;28;20332;-55
2023/10/29 11:40:31;;;;;;;;;;;24.90;46.70;;;;;;5094026;28;19985;-53
2023/10/29 11:43:22;;;;;;;;;;;24.90;46.60;;;;;;5093904;28;19924;-50
2023/10/29 11:45:53;;;;;;;;;;;24.90;46.50;;;;;;5093021;28;19938;-51
2023/10/29 11:48:20;;;;;;;;;;;24.90;47.10;;;;;;5093757;28;19931;-55
2023/10/29 11:51:10;;;;;;;;;;;24.90;46.40;;;;;;5093974;28;19925;-52
2023/10/29 11:53:38;;;;;;;;;;;24.90;46.40;;;;;;5092681;28;19931;-49
2023/10/29 11:56:07;;;;;;;;;;;24.90;46.40;;;;;;5093603;28;19924;-49
2023/10/29 11:58:34;;;;;;;;;;;24.90;46.30;;;;;;5093565;28;19944;-50
2023/10/29 12:01:02;;;;;;;;;;;25.00;46.40;;;;;;5093218;28;19959;-55
2023/10/29 12:03:32;;;;;;;;;;;25.00;46.40;;;;;;5093709;28;20330;-51
2023/10/29 12:05:59;;;;;;;;;;;25.00;46.40;;;;;;5099078;28;19928;-49
2023/10/29 12:08:29;;;;;;;;;;;25.00;46.30;;;;;;5114063;28;19923;-55
2023/10/29 12:10:58;;;;;;;;;;;25.00;46.30;;;;;;5114164;28;19969;-49
2023/10/29 12:13:25;;;;;;;;;;;25.00;46.30;;;;;;5113920;28;19949;-50
2023/10/29 12:15:56;;;;;;;;;;;25.00;46.30;;;;;;5113923;28;20148;-50
2023/10/29 12:18:24;;;;;;;;;;;25.00;46.20;;;;;;5113284;28;20014;-49
2023/10/29 12:21:05;;;;;;;;;;;25.00;46.10;;;;;;5113884;28;20106;-54
2023/10/29 12:23:33;;;;;;;;;;;25.00;46.00;;;;;;5113503;28;19927;-50
2023/10/29 12:26:01;;;;;;;;;;;25.10;45.90;;;;;;5113829;28;19966;-55
2023/10/29 12:28:28;;;;;;;;;;;25.10;45.80;;;;;;5113527;28;19924;-50
2023/10/29 12:30:57;;;;;;;;;;;25.10;45.70;;;;;;5113705;28;20438;-54
2023/10/29 12:33:26;;;;;;;;;;;25.10;45.70;;;;;;5113711;28;19931;-52
2023/10/29 12:35:55;;;;;;;;;;;25.10;45.70;;;;;;5112974;28;19924;-50
2023/10/29 12:38:23;;;;;;;;;;;25.10;45.70;;;;;;5113852;28;19969;-51
2023/10/29 12:41:14;;;;;;;;;;;25.20;45.70;;;;;;5113482;28;19953;-51
2023/10/29 12:43:47;;;;;;;;;;;25.10;45.60;;;;;;5113629;28;19931;-50
2023/10/29 12:46:15;;;;;;;;;;;25.10;45.60;;;;;;5113778;28;19923;-56
2023/10/29 12:48:57;;;;;;;;;;;25.20;45.60;;;;;;5113346;28;20436;-57
2023/10/29 12:51:25;;;;;;;;;;;25.20;45.50;;;;;;5112681;28;19924;-57
2023/10/29 12:53:52;;;;;;;;;;;25.20;45.50;;;;;;5113151;28;19927;-56
2023/10/29 12:56:19;;;;;;;;;;;25.20;45.50;;;;;;5113696;28;20276;-56
2023/10/29 12:58:46;;;;;;;;;;;25.20;46.00;;;;;;5113497;28;20287;-56
2023/10/29 13:01:13;;;;;;;;;;;25.20;45.40;;;;;;5113365;28;19977;-55
2023/10/29 13:03:40;;;;;;;;;;;25.20;45.40;;;;;;5114246;28;19923;-52
2023/10/29 13:06:08;;;;;;;;;;;25.20;45.40;;;;;;5116180;28;19928;-55
2023/10/29 13:08:35;;;;;;;;;;;25.20;45.60;;;;;;5116455;28;19927;-55
2023/10/29 13:11:03;;;;;;;;;;;25.20;45.60;;;;;;5116829;28;20367;-55
2023/10/29 13:13:30;;;;;;;;;;;25.20;45.30;;;;;;5116817;28;19924;-56
2023/10/29 13:16:00;;;;;;;;;;;25.30;45.40;;;;;;5116768;28;19927;-56
2023/10/29 13:18:27;;;;;;;;;;;25.30;45.50;;;;;;5115585;28;19923;-53
2023/10/29 13:21:02;;;;;;;;;;;25.20;45.50;;;;;;5117014;28;20014;-54
2023/10/29 13:23:29;;;;;;;;;;;25.20;45.70;;;;;;5115478;28;20010;-55
2023/10/29 13:25:56;;;;;;;;;;;25.20;45.70;;;;;;5116291;28;19931;-54
2023/10/29 13:28:23;;;;;;;;;;;25.20;45.70;;;;;;5116497;28;19928;-53
2023/10/29 13:30:54;;;;;;;;;;;25.20;45.70;;;;;;5116539;28;20290;-53
2023/10/29 13:33:23;;;;;;;;;;;25.20;45.80;;;;;;5116666;28;20435;-55
2023/10/29 13:35:51;;;;;;;;;;;25.20;45.70;;;;;;5116598;28;20367;-52
2023/10/29 13:38:19;;;;;;;;;;;25.20;45.80;;;;;;5116344;28;19969;-50
2023/10/29 13:40:46;;;;;;;;;;;25.20;45.70;;;;;;5098603;28;19928;-52
2023/10/29 13:43:13;;;;;;;;;;;25.20;45.70;;;;;;5095790;28;19924;-57
2023/10/29 13:45:40;;;;;;;;;;;25.10;45.60;;;;;;5095960;28;19948;-53
2023/10/29 13:48:07;;;;;;;;;;;25.10;45.60;;;;;;5096079;28;19969;-54
2023/10/29 13:50:38;;;;;;;;;;;25.10;45.60;;;;;;5095755;28;19970;-55
2023/10/29 13:53:05;;;;;;;;;;;25.10;45.50;;;;;;5095651;28;19931;-50
2023/10/29 13:55:33;;;;;;;;;;;25.10;45.50;;;;;;5095504;28;19927;-54
2023/10/29 13:58:01;;;;;;;;;;;25.10;45.60;;;;;;5095549;28;19970;-55
2023/10/29 14:00:28;;;;;;;;;;;25.10;45.60;;;;;;5095334;28;19970;-56
2023/10/29 14:02:55;;;;;;;;;;;25.10;45.50;;;;;;5095711;28;20265;-55
2023/10/29 14:05:24;;;;;;;;;;;25.10;45.70;;;;;;5095786;28;19930;-54
2023/10/29 14:07:54;;;;;;;;;;;25.10;46.00;;;;;;5095322;28;19990;-53
2023/10/29 14:10:21;;;;;;;;;;;25.10;46.20;;;;;;5095602;28;19935;-55
2023/10/29 14:12:48;;;;;;;;;;;25.00;46.70;;;;;;5094338;28;19924;-55
2023/10/29 14:15:15;;;;;;;;;;;25.00;46.20;;;;;;5094129;28;19967;-51
2023/10/29 14:17:42;;;;;;;;;;;24.90;46.30;;;;;;5094894;28;19924;-55
2023/10/29 14:20:09;;;;;;;;;;;24.90;46.30;;;;;;5095067;28;19928;-49